Dimitris Artymatas

Chief Scout - Apollon
20 Nov 2027
Saturday
Process

Personality

Adaptability (2) Ambition (5) Controversy (9) Loyalty (5) Pressure (10) Professionalism (8) Sportsmanship (16) Temperament (18)

Profile

Coaching Style Democratic
License National A
Determination 9
Man Management 4
Motivating 5
Discipline 12
Job Satisfaction
100%
Fatigue
0%
Role Chief Scout
Wage 32.1K p/w
Contract 14.03.2030

Performance

Behaviour Good
Training Effectiveness
51%
Player Development
45%
Injury Prevention
30%
Tactical Implementation
60%

Recent Events

Attended a recruitment meeting now
Recommended a transfer target now
Recommended a transfer target now
Recommended a transfer target now
Recommended a transfer target now
Recommended a transfer target now
Attended a recruitment meeting now
Assessed a player now

Currently Monitoring

236
Player Club Status Ability Confidence Watched Last Observed Latest Vote
Tyson Pearce St. Louis CITY SC Active 87 / 117 40% 3 19.11.2027 -
Misael Tarón Ferro Carril Oeste Active 109 / 111 40% 4 19.11.2027 -
Jorge Cardona Alianza Petrolera Active 117 / 107 40% 8 19.11.2027 -
Elías Báez Atlanta United FC Active 125 / 110 40% 3 19.11.2027 -
Kaick FC Dallas Active 102 / 105 40% 1 19.11.2027 -
Francis Gomez Accrington Stanley Active 118 / 105 40% 1 19.11.2027 -
Vicente Poggi Godoy Cruz Active 127 / 133 40% 6 16.11.2027 -
Maico Quiroz Güemes Active 117 / 122 40% 2 16.11.2027 -
Juan Saborido Platense Active 128 / 131 40% 2 16.11.2027 -
Ian Pérez Defensores Active 105 / 98 40% 6 14.11.2027 -
Franco Quinteros Estudiantes Active 117 / 117 40% 5 14.11.2027 -
Gastón Hernández San Lorenzo Active 129 / 136 40% 2 14.11.2027 -
Diogo Guzmán Montevideo City Torque Active 118 / 116 40% 7 13.11.2027 -
Tomás Silva Platense Active 123 / 129 40% 1 13.11.2027 -
Felipe Andrade Houston Dynamo Active 121 / 120 40% 1 13.11.2027 -
Mateo Silvetti Inter Miami CF Active 118 / 115 40% 5 11.11.2027 -
Lucas Monzón Alvarado Active 116 / 111 40% 4 11.11.2027 -
Federico Pérez Agropecuario Argentino Active 111 / 120 40% 6 11.11.2027 -
Nicolás Demartini Temperley Active 119 / 130 40% 2 11.11.2027 -
Shea Lacey Millwall Active 124 / 118 40% 1 11.11.2027 -
Abdulrahman Hamisu Niger Tornadoes Active 87 / 87 40% 5 10.11.2027 -
Emmanuel Ndubueze Shooting Stars Active 94 / 97 40% 2 10.11.2027 -
Austine Odongo Shabana Active 83 / 77 40% 1 10.11.2027 -
Facundo Ardiles Estudiantes Active 109 / 109 40% 3 08.11.2027 -
Ezequiel Neira Carabobo Active 114 / 120 40% 1 08.11.2027 -
Alejo Tabares All Boys Active 115 / 108 40% 5 07.11.2027 -
Thomas Ortega Quilmes Active 110 / 115 40% 3 07.11.2027 -
Bruno Leyes Godoy Cruz Active 128 / 126 40% 3 06.11.2027 -
Iván Cabrera Arsenal Active 104 / 106 40% 1 06.11.2027 -
Nicolás Azambuja Danubio Active 117 / 133 40% 3 05.11.2027 -
Mathías Silvera Chaco For Ever Active 109 / 117 40% 5 05.11.2027 -
Aron Agüero Maipú Active 108 / 112 40% 3 05.11.2027 -
Kauã Moraes Cruzeiro Active 129 / 130 40% 2 05.11.2027 -
Hassan Beja AFC Leopards Active 95 / 75 40% 5 04.11.2027 -
Facundo Balatti Penarol Active 106 / 117 40% 2 04.11.2027 -
Mateo Mendoza Godoy Cruz Active 133 / 124 40% 4 02.11.2027 -
Santiago González Tigre Active 129 / 129 40% 1 02.11.2027 -
Juan Yangali San Telmo Active 119 / 111 40% 1 01.11.2027 -
Damián Fernández Defensa y Justicia Active 128 / 133 40% 1 31.10.2027 -
Gabriel Díaz Patronato Active 118 / 109 40% 3 29.10.2027 -
Martín García Atlanta Active 115 / 117 40% 1 29.10.2027 -
Walter Juárez Güemes Active 108 / 114 40% 3 27.10.2027 -
Paulo Vitor Dinamo Batumi Active 112 / 121 40% 2 27.10.2027 -
Ignacio Abraham Banfield Active 123 / 118 40% 2 25.10.2027 -
Fernando Martínez Central Córdoba SdE Active 122 / 128 40% 1 25.10.2027 -
Marcos López San Martín Active 128 / 136 40% 1 25.10.2027 -
Gonzalo Abrego Godoy Cruz Active 123 / 117 40% 3 22.10.2027 -
Franco Bergés Güemes Active 107 / 112 40% 1 21.10.2027 -
Alexis Steimbach Gimnasia La Plata Active 119 / 120 40% 1 21.10.2027 -
Matías Machado Racing Active 116 / 115 40% 3 20.10.2027 -
Tomás Ferreyra Defensores Unidos Active 114 / 117 40% 2 19.10.2027 -
Lorenzo Monti Temperley Active 105 / 108 40% 4 18.10.2027 -
Leandro Lucero Temperley Active 116 / 112 40% 1 18.10.2027 -
Augusto Schott Talleres Active 126 / 123 40% 4 17.10.2027 -
Agustín Benítez Defensores Active 113 / 108 40% 2 16.10.2027 -
Sheyko Studer Independiente Rivadavia Active 125 / 127 40% 1 16.10.2027 -
Agustín Dattola Almirante Brown Active 119 / 120 40% 2 15.10.2027 -
Gonzalo Mottes Chacarita Juniors Active 119 / 125 40% 1 13.10.2027 -
Franco Díaz Temperley Active 124 / 115 40% 1 13.10.2027 -
Luis Olivera Defensores Unidos Active 112 / 103 40% 1 13.10.2027 -
Bruno Palazzo Nueva Chicago Active 110 / 117 40% 1 08.10.2027 -
Aiden Hezarkhani Real Salt Lake Active 86 / 104 40% 2 06.10.2027 -
Luciano Paredes Maipú Active 106 / 101 40% 1 06.10.2027 -
Luis Otávio Toronto FC Active 117 / 124 40% 2 04.10.2027 -
Esteban de Lima Tacuarembo Active 90 / 104 40% 1 04.10.2027 -
Sergio Casseres Llaneros Active 76 / 73 40% 1 04.10.2027 -
Nicolás Mosca Atlanta Active 110 / 120 40% 4 02.10.2027 -
Franco Sivetti Gimnasia y Tiro Active 108 / 101 40% 1 02.10.2027 -
Chimobi Igwilo Rangers International Active 85 / 100 40% 3 30.09.2027 -
Joel Ezra Enyimba Active 96 / 90 40% 1 30.09.2027 -
Enzo Martínez Gimnasia La Plata Active 122 / 127 40% 1 28.09.2027 -
Emiliano Zambrano Gimnasia y Esgrima Active 96 / 102 40% 5 27.09.2027 -
Carlos Caicedo La Equidad Active 114 / 123 40% 3 27.09.2027 -
Rodrigo Ramírez Nueva Chicago Active 109 / 111 40% 1 27.09.2027 -
Troy Nyhammer Tromso Active 105 / 98 40% 2 23.09.2027 -
Oskar Spiten-Nysæter Molde Active 110 / 138 40% 1 23.09.2027 -
Koffi Kouao Neftchi Active 129 / 131 40% 1 21.09.2027 -
Delvin Alfonzo Deportivo Tachira Active 116 / 118 40% 1 21.09.2027 -
Christian Larotonda Caracas Active 114 / 119 40% 1 20.09.2027 -
Nodar Lominadze Torpedo Kutaisi Active 114 / 117 40% 1 19.09.2027 -
Valentín Serrano Arsenal Active 114 / 104 40% 1 18.09.2027 -
Teruki Hara Nagoya Grampus Active 122 / 113 40% 1 17.09.2027 -
Facundo Gulli San Lorenzo Active 119 / 119 40% 6 16.09.2027 -
Felix Mosquera Deportes Quindio Active 90 / 88 40% 2 16.09.2027 -
Diego Cordova Llaneros Active 105 / 101 40% 1 10.09.2027 -
Martín Gianoli Deportivo La Guaira Active 115 / 119 40% 1 10.09.2027 -
Erik de los Santos Racing Active 115 / 123 40% 1 09.09.2027 -
Mauricio Amaro Atlanta United FC Active 116 / 119 40% 1 09.09.2027 -
Luis Yanes Real Cartagena Active 86 / 102 40% 2 07.09.2027 -
David Asayure Lokomotivi Active 79 / 85 40% 1 02.09.2027 -
Alan Morinigo Olimpia Active 118 / 123 40% 4 01.09.2027 -
Appolinaire Bougma Binga Active 95 / 83 40% 1 31.08.2027 -
Gladson Sulemana Liberty Professionals Active 103 / 90 40% 1 31.08.2027 -
Victor Muriel Valledupar Active 80 / 94 40% 2 30.08.2027 -
Ihojan Pérez Cerro Largo Active 95 / 91 40% 1 30.08.2027 -
Tiziano Cabrera Central Norte Active 90 / 97 40% 5 29.08.2027 -
Iván Barbona Colón Active 97 / 106 40% 2 29.08.2027 -
Mateo Alcoba Albion Active 82 / 86 40% 1 29.08.2027 -
Benjamin Tsivanyo Aduana Stars Active 97 / 75 40% 1 28.08.2027 -
Wilfred Correa Caracas Active 98 / 90 40% 1 26.08.2027 -
Vincent Klu Adjeu Berekum Chelsea Active 71 / 90 40% 1 25.08.2027 -
Tiago Gordillo San Miguel Active 84 / 104 40% 1 25.08.2027 -
Marquinhos APOEL Active 135 / 125 76% 1 23.08.2027 Approve
Benjamin Merba Foullah Edifice Active 69 / 96 40% 1 21.08.2027 -
Yannik Wagner Heidenheim Active 108 / 128 40% 1 21.08.2027 -
Tiago Borquez Gimnasia y Tiro Active 86 / 79 40% 1 21.08.2027 -
Matías Canedo Rampla Juniors Active 89 / 88 40% 2 20.08.2027 -
Davide De Fraia Latina Active 82 / 80 40% 1 20.08.2027 -
Noah Streit CF Montreal Active 111 / 125 40% 1 19.08.2027 -
Mattia Rutigliano Pro Vercelli Active 105 / 102 40% 1 17.08.2027 -
Nicolás Ferreira Artigas Active 77 / 94 40% 1 17.08.2027 -
Matías Gómez Valencia Active 117 / 136 40% 2 14.08.2027 -
Tommaso Cecotti Carpi Active 98 / 101 40% 3 13.08.2027 -
Dylan Salvo Defensores Unidos Active 100 / 109 40% 1 13.08.2027 -
Ricardo Solbes Getafe Active 101 / 117 40% 3 09.08.2027 -
Sam Chambers Leeds United Active 107 / 118 40% 1 09.08.2027 -
Agustín Medina Lanús Active 119 / 117 40% 1 07.08.2027 -
Mattia Puzone Siracusa Active 100 / 90 40% 2 06.08.2027 -
Federico Coletta Benfica Active 102 / 125 40% 1 06.08.2027 -
Kamarni Ryan Salford City Active 104 / 104 40% 1 04.08.2027 -
Alphadjo Cissé Pisa Active 120 / 126 40% 3 03.08.2027 -
Kai Enslin Charlton Athletic Active 93 / 105 40% 2 03.08.2027 -
Matteo Scanzi Lumezzane Active 93 / 100 40% 3 01.08.2027 -
Sammy Henia-Kamau Cheltenham Town Active 72 / 66 40% 1 31.07.2027 -
Martim Cunha Porto Active 105 / 117 40% 1 30.07.2027 -
Yuval Ranon Vitesse Active 101 / 90 40% 1 29.07.2027 -
Charlie Kelman Charlton Athletic Active 122 / 112 40% 1 26.07.2027 -
Pedro Mendes Modena Rejected 128 / 114 40% 1 26.07.2027 -
Amine Moussaoui Angers SCO Active 98 / 117 40% 4 25.07.2027 -
Sebastián Flores Rayo Vallecano Active 104 / 129 40% 1 25.07.2027 -
Joseph Liteta Parma Active 103 / 102 40% 2 24.07.2027 -
Kai Andrews Coventry City Active 105 / 107 40% 1 23.07.2027 -
Borna Knezović Casarano Lost 104 / 123 40% 2 21.07.2027 -
Paulo Cardoso Sporting CP Active 104 / 116 40% 3 21.07.2027 -
Yaw Adjei Hasaacas Active 80 / 88 40% 1 15.07.2027 -
Rio Morgan Legion Active 85 / 82 40% 1 12.07.2027 -
Tiago Freitas Benfica Active 116 / 121 40% 5 10.07.2027 -
Samuel Lucero Defensa y Justicia Active 117 / 112 40% 2 09.07.2027 -
Lander Astiazarán Real Sociedad Active 108 / 106 40% 1 07.07.2027 -
Jay Robinson Southampton Active 122 / 118 40% 1 28.06.2027 -
Leighton Clarkson Blackpool Active 118 / 129 40% 1 28.06.2027 -
Manolo Portanova Reggiana Lost 131 / 131 40% 5 22.06.2027 -
Sam Greenwood Bristol City Active 120 / 110 40% 1 22.06.2027 -
Sam Bell Bristol City Active 114 / 105 40% 1 22.06.2027 -
Malik Mothersille Stockport County Active 108 / 119 40% 1 16.06.2027 -
Sam Smith Wrexham Active 119 / 126 40% 1 16.06.2027 -
Bojan Radulović Huddersfield Town Active 118 / 106 40% 1 16.06.2027 -
Turki Al-Ammar Al-Qadisiyah Active 119 / 119 66% 1 01.06.2027 Approve
Dario Vizinger NK Maribor Lost 111 / 111 90% 1 01.06.2027 -
Christopher Bonsu Baah Al-Qadisiyah Active 122 / 125 67% 1 01.06.2027 Approve
Denzel Jubitana Neftchi Active 125 / 113 40% 3 31.05.2027 -
Agustín Hausch Caracas Active 117 / 128 40% 1 31.05.2027 -
Jacques Siwe Rubin Active 117 / 109 40% 3 30.05.2027 -
Tommaso Milanese Carrarese Active 117 / 133 40% 4 30.05.2027 -
Stefano Di Mario Virtus Entella Lost 122 / 141 40% 3 30.05.2027 -
Tenton Yenne Baltika Active 106 / 116 40% 2 30.05.2027 -
Kirill Cheburakov Rostov Active 78 / 88 40% 2 29.05.2027 -
Lorenzo De Leo Renate Active 96 / 103 40% 1 29.05.2027 -
Mathis Jangeal Famalicao Active 99 / 100 40% 1 29.05.2027 -
Giacomo Olzer Pescara Active 124 / 102 40% 2 26.05.2027 -
Simone Trimboli Mantova Active 126 / 139 40% 5 25.05.2027 -
Edison Gruezo Guadalajara Active 105 / 119 40% 1 23.05.2027 -
Yari Verschaeren Sampdoria Active 122 / 135 40% 1 23.05.2027 -
Nicolò Radaelli Mantova Active 122 / 130 40% 2 22.05.2027 -
Ignacio Aliseda Cerro Porteno Active 129 / 125 40% 2 20.05.2027 -
Bjarki Bjarkason Südtirol Active 118 / 115 40% 2 19.05.2027 -
Jalen Blesa Rio Ave Active 124 / 114 40% 5 18.05.2027 -
John Yeboah Venezia Active 128 / 113 40% 2 16.05.2027 -
Franz-Ethan Meichtry Genoa Active 123 / 117 40% 1 16.05.2027 -
Aldo Florenzi Cosenza Active 115 / 99 40% 3 15.05.2027 -
Matteo Francesconi Cesena Active 125 / 115 40% 3 15.05.2027 -
Marco Pompetti Padova Lost 136 / 114 40% 4 14.05.2027 -
Duccio Degli Innocenti Empoli Active 112 / 112 40% 1 14.05.2027 -
Camillo Tavernelli Arezzo Active 123 / 97 40% 7 13.05.2027 -
Oumar Camara Vitoria Guimaraes Active 129 / 128 40% 1 13.05.2027 -
Doğucan Haspolat Westerlo Active 123 / 114 40% 6 11.05.2027 -
Maxence Caqueret Como Active 132 / 144 40% 1 10.05.2027 -
Niccolò Squizzato Virtus Entella Active 112 / 124 40% 1 08.05.2027 -
Jajá Pafos Active 118 / 101 40% 7 07.05.2027 -
Marco Da Graca Novara Active 94 / 116 40% 1 06.05.2027 -
Bernat Guiu Virtus Entella Active 125 / 113 40% 2 04.05.2027 -
Juan Manuel Boselli Krasnodar Active 120 / 121 40% 4 01.05.2027 -
Ekain Orobengoa Real Sociedad Active 103 / 93 40% 1 01.05.2027 -
Job Ochieng Real Sociedad Active 100 / 104 40% 1 01.05.2027 -
Simone Santoro Modena Active 122 / 121 40% 1 28.04.2027 -
Iker Pozo Rodina Active 118 / 126 40% 5 26.04.2027 -
Damián Puebla Orenburg Active 124 / 125 40% 1 25.04.2027 -
Nikita Krivtsov Krasnodar Active 132 / 125 40% 4 22.04.2027 -
Arsen Adamov Akhmat Grozny Active 121 / 128 40% 9 21.04.2027 -
Miguel Falé Pacos de Ferreira Active 113 / 113 40% 1 18.04.2027 -
Dilan Ortíz Ufa Active 102 / 111 40% 1 11.04.2027 -
Natan Girma Reggiana Active 109 / 133 40% 1 09.04.2027 -
Ronaldo Vásquez Sumgayit Active 114 / 108 40% 3 08.04.2027 -
Vladimir Khubulov Dinamo Makhachkala Active 112 / 110 40% 1 06.04.2027 -
Olakunle Olusegun Rostov Active 125 / 120 40% 4 04.04.2027 -
Tunde AVS Active 107 / 121 40% 3 04.04.2027 -
Alexandr Chernikov Krasnodar Active 134 / 141 40% 4 31.03.2027 -
Xavier Biscayzacú Sporting CP Active 124 / 137 40% 1 31.03.2027 -
Faisal Al-Ghamdi Al-Ittihad Active 111 / 136 40% 1 29.03.2027 -
Lechi Sadulaev Akhmat Grozny Active 121 / 118 40% 6 25.03.2027 -
Dardan Shabanhaxhaj Rubin Active 122 / 115 40% 6 23.03.2027 -
Yacine Adli Al-Shabab Active 134 / 141 40% 2 22.03.2027 -
Carlos Dotor Celta Active 115 / 136 40% 1 22.03.2027 -
Sergey Pinyaev Lokomotiv Moscow Active 130 / 120 40% 3 19.03.2027 -
Akinkunmi Amoo Najran Active 125 / 120 40% 3 16.03.2027 -
Martins Júnior Zira Active 111 / 105 40% 6 09.03.2027 -
Alexandr Burkov Rodina M Active 77 / 82 40% 1 08.03.2027 -
Leandro Martins Benfica Active 94 / 81 40% 2 05.03.2027 -
Isma Ruiz Córdoba Active 137 / 124 40% 1 03.03.2027 -
Alexey Mironov Rostov Active 114 / 127 40% 1 23.02.2027 -
Mitchel Bakker Rostov Active 137 / 126 40% 2 22.02.2027 -
Parfait Guiagon Al-Taawoun Active 129 / 127 40% 1 20.02.2027 -
Robert Mejía Orenburg Active 122 / 104 40% 1 18.02.2027 -
Helinho Toluca Active 134 / 126 40% 1 10.02.2027 -
Hector Kyprianou Watford Active 113 / 119 40% 1 08.02.2027 -
Aiman Yahya Al-Nassr Active 111 / 101 40% 1 08.02.2027 -
Naïs Djouahra Arouca Active 128 / 136 40% 2 03.02.2027 -
Thiago Silvero Sevilla Active 115 / 122 40% 3 28.01.2027 -
Lautaro Vargas Real Sociedad Active 125 / 135 40% 1 26.01.2027 -
Toheeb Kosoko Umraniyespor Active 88 / 87 40% 1 22.01.2027 -
Jofre Torrents Ajax Active 128 / 144 40% 2 21.01.2027 -
Surprise Manthosi Polokwane City Active 94 / 95 40% 1 21.01.2027 -
Gonçalo Oliveira Benfica Active 108 / 105 40% 1 21.01.2027 -
Vladislav Pospelov Baltika Active 78 / 75 40% 2 11.01.2027 -
Waldo AE Kition Active 121 / 123 72% 1 11.01.2027 Approve
Ivan Shilenok Zenit Active 90 / 90 40% 1 11.01.2027 -
Ronan Kpakio Brentford Active 107 / 138 40% 1 10.01.2027 -
Brandon Khela Peterborough United Active 101 / 93 40% 1 09.01.2027 -
Ilja Rozhkov Rubin Active 119 / 117 40% 1 09.01.2027 -
Lucas Mbamba Westerlo Active 77 / 104 40% 1 07.01.2027 -
David Ozoh Derby County Active 123 / 126 40% 1 05.01.2027 -
Bahlul Mammadov Inter Active 115 / 115 66% 1 01.01.2027 Approve
Davit Volkovi Zira Lost 115 / 115 66% 1 01.01.2027 -
Illaijh de Ruijter ADO Den Haag Active 120 / 138 40% 1 01.01.2027 -
Lucas Jetten Cambuur Active 111 / 107 40% 1 31.12.2026 Needs More Info
Lautaro Quiroga Defensa y Justicia Active 101 / 105 40% 1 05.08.2026 -